createdAt,value
2023-06-29T00:01:56.889Z,8.03
2023-06-29T00:04:27.269Z,8.60
2023-06-29T00:06:55.363Z,8.30
2023-06-29T00:09:25.349Z,8.07
2023-06-29T00:11:52.177Z,7.23
2023-06-29T00:14:18.970Z,8.13
2023-06-29T00:16:46.061Z,7.57
2023-06-29T00:19:15.713Z,8.93
2023-06-29T00:21:43.100Z,8.67
2023-06-29T00:24:13.073Z,7.77
2023-06-29T00:26:39.875Z,8.70
2023-06-29T00:29:07.146Z,8.40
2023-06-29T00:31:34.288Z,9.27
2023-06-29T00:34:01.208Z,8.80
2023-06-29T00:36:27.989Z,8.20
2023-06-29T00:38:54.741Z,8.93
2023-06-29T00:41:21.609Z,8.93
2023-06-29T00:43:48.385Z,8.40
2023-06-29T00:46:20.012Z,8.40
2023-06-29T00:48:47.577Z,7.03
2023-06-29T00:51:16.242Z,7.80
2023-06-29T00:53:43.853Z,7.90
2023-06-29T00:56:10.938Z,8.07
2023-06-29T00:58:37.825Z,7.80
2023-06-29T01:01:05.240Z,7.17
2023-06-29T01:03:32.453Z,7.70
2023-06-29T01:06:05.786Z,7.70
2023-06-29T01:08:41.057Z,8.37
2023-06-29T01:11:08.705Z,7.77
2023-06-29T01:13:37.477Z,8.43
2023-06-29T01:16:06.291Z,7.53
2023-06-29T01:18:34.322Z,7.90
2023-06-29T01:21:02.242Z,7.80
2023-06-29T01:23:37.840Z,7.93
2023-06-29T01:26:06.466Z,8.50
2023-06-29T01:28:39.347Z,8.77
2023-06-29T01:31:06.780Z,7.50
2023-06-29T01:33:34.439Z,7.10
2023-06-29T01:36:23.029Z,6.80
2023-06-29T01:39:28.667Z,7.30
2023-06-29T01:41:56.626Z,7.90
2023-06-29T01:44:23.517Z,8.10
2023-06-29T01:46:53.447Z,7.80
2023-06-29T01:49:20.898Z,8.20
2023-06-29T01:51:47.702Z,7.33
2023-06-29T01:54:14.514Z,7.30
2023-06-29T01:56:41.363Z,7.57
2023-06-29T01:59:08.207Z,7.37
2023-06-29T02:01:35.016Z,7.43
2023-06-29T02:04:01.914Z,7.73
2023-06-29T02:06:29.439Z,7.67
2023-06-29T02:08:56.249Z,8.23
2023-06-29T02:11:23.053Z,7.53
2023-06-29T02:13:49.906Z,8.27
2023-06-29T02:16:16.841Z,7.30
2023-06-29T02:18:43.689Z,8.50
2023-06-29T02:21:10.467Z,7.47
2023-06-29T02:23:37.259Z,7.93
2023-06-29T02:26:04.052Z,8.47
2023-06-29T02:28:30.927Z,6.83
2023-06-29T02:30:57.852Z,7.97
2023-06-29T02:33:24.647Z,8.47
2023-06-29T02:35:51.424Z,7.90
2023-06-29T02:38:18.177Z,8.23
2023-06-29T02:40:45.806Z,9.07
2023-06-29T02:43:12.677Z,8.43
2023-06-29T02:45:39.515Z,8.00
2023-06-29T02:48:06.538Z,7.97
2023-06-29T02:50:33.449Z,8.63
2023-06-29T02:53:00.627Z,9.20
2023-06-29T02:55:27.469Z,9.27
2023-06-29T02:57:54.253Z,7.40
2023-06-29T03:00:21.120Z,8.20
2023-06-29T03:02:47.989Z,7.87
2023-06-29T03:05:14.822Z,7.97
2023-06-29T03:07:41.602Z,8.20
2023-06-29T03:10:08.992Z,9.03
2023-06-29T03:12:35.798Z,8.23
2023-06-29T03:15:02.579Z,6.30
2023-06-29T03:17:29.515Z,9.00
2023-06-29T03:19:56.438Z,9.23
2023-06-29T03:22:24.346Z,7.83
2023-06-29T03:24:51.103Z,7.57
2023-06-29T03:27:17.924Z,7.57
2023-06-29T03:29:44.956Z,7.00
2023-06-29T03:32:11.817Z,7.70
2023-06-29T03:34:38.699Z,6.30
2023-06-29T03:37:05.634Z,7.40
2023-06-29T03:39:32.477Z,6.30
2023-06-29T03:41:59.278Z,7.17
2023-06-29T03:44:26.114Z,8.80
2023-06-29T03:46:53.184Z,6.90
2023-06-29T03:49:19.963Z,6.07
2023-06-29T03:51:46.804Z,6.27
2023-06-29T03:54:13.645Z,6.70
2023-06-29T03:56:40.428Z,7.03
2023-06-29T03:59:07.265Z,7.60
2023-06-29T04:01:34.115Z,7.43
2023-06-29T04:04:01.105Z,6.17
2023-06-29T04:06:27.975Z,8.00
2023-06-29T04:08:54.722Z,7.00
2023-06-29T04:11:21.505Z,6.80
2023-06-29T04:13:48.319Z,6.30
2023-06-29T04:16:15.191Z,7.30
2023-06-29T04:18:42.168Z,5.87
2023-06-29T04:21:09.021Z,5.87
2023-06-29T04:23:35.804Z,5.90
2023-06-29T04:26:04.469Z,5.47
2023-06-29T04:28:35.019Z,6.33
2023-06-29T04:31:01.899Z,5.40
2023-06-29T04:33:28.845Z,5.47
2023-06-29T04:35:56.255Z,4.90
2023-06-29T04:38:27.787Z,5.93
2023-06-29T04:41:01.030Z,4.53
2023-06-29T04:43:27.800Z,6.03
2023-06-29T04:45:54.589Z,5.23
2023-06-29T04:48:25.423Z,5.67
2023-06-29T04:50:52.260Z,5.53
2023-06-29T04:53:19.060Z,6.00
2023-06-29T04:55:46.792Z,6.43
2023-06-29T04:58:13.766Z,6.60
2023-06-29T05:00:40.785Z,6.03
2023-06-29T05:03:07.623Z,6.60
2023-06-29T05:05:34.466Z,6.30
2023-06-29T05:08:01.412Z,5.60
2023-06-29T05:10:28.336Z,7.27
2023-06-29T05:12:55.143Z,6.40
2023-06-29T05:15:21.979Z,6.97
2023-06-29T05:17:48.879Z,5.70
2023-06-29T05:20:18.530Z,6.63
2023-06-29T05:22:45.406Z,5.53
2023-06-29T05:25:12.221Z,6.07
2023-06-29T05:27:39.108Z,6.33
2023-06-29T05:30:08.087Z,6.57
2023-06-29T05:32:34.902Z,6.10
2023-06-29T05:35:01.984Z,6.77
2023-06-29T05:37:30.638Z,6.60
2023-06-29T05:39:58.043Z,6.23
2023-06-29T05:42:25.344Z,6.80
2023-06-29T05:44:52.147Z,7.07
2023-06-29T05:47:20.290Z,6.23
2023-06-29T05:49:47.164Z,6.70
2023-06-29T05:52:13.972Z,7.07
2023-06-29T05:54:40.748Z,6.47
2023-06-29T05:57:07.805Z,6.43
2023-06-29T05:59:34.596Z,5.63
2023-06-29T06:02:01.340Z,6.90
2023-06-29T06:04:28.168Z,6.90
2023-06-29T06:06:55.061Z,6.93
2023-06-29T06:09:21.872Z,6.40
2023-06-29T06:11:48.661Z,7.17
2023-06-29T06:14:15.452Z,6.27
2023-06-29T06:16:42.336Z,6.27
2023-06-29T06:19:09.158Z,6.60
2023-06-29T06:21:35.914Z,7.00
2023-06-29T06:24:02.744Z,6.67
2023-06-29T06:26:29.644Z,7.10
2023-06-29T06:28:56.501Z,6.70
2023-06-29T06:31:33.326Z,6.93
2023-06-29T06:34:01.335Z,7.53
2023-06-29T06:36:32.252Z,6.70
2023-06-29T06:38:59.776Z,7.20
2023-06-29T06:41:26.625Z,8.83
2023-06-29T06:43:53.386Z,7.00
2023-06-29T06:46:20.221Z,7.40
2023-06-29T06:48:49.242Z,6.23
2023-06-29T06:51:16.285Z,7.07
2023-06-29T06:53:43.081Z,7.00
2023-06-29T06:56:09.888Z,6.00
2023-06-29T06:58:36.771Z,6.70
2023-06-29T07:01:03.687Z,7.17
2023-06-29T07:03:30.644Z,6.17
2023-06-29T07:05:59.204Z,6.77
2023-06-29T07:08:26.114Z,6.40
2023-06-29T07:10:53.153Z,5.63
2023-06-29T07:13:20.058Z,5.63
2023-06-29T07:15:47.428Z,5.43
2023-06-29T07:18:14.203Z,5.70
2023-06-29T07:25:41.297Z,6.40
2023-06-29T07:28:08.262Z,6.30
2023-06-29T07:30:36.123Z,5.63
2023-06-29T07:33:03.205Z,6.43
2023-06-29T07:35:30.144Z,5.67
2023-06-29T07:37:56.926Z,5.50
2023-06-29T07:40:23.860Z,5.53
2023-06-29T07:42:50.751Z,5.33
2023-06-29T07:45:17.607Z,5.17
2023-06-29T07:47:44.430Z,4.90
2023-06-29T07:50:12.179Z,5.43
2023-06-29T07:52:39.102Z,5.10
2023-06-29T07:55:06.107Z,5.60
2023-06-29T08:00:02.919Z,4.90
2023-06-29T08:02:29.755Z,4.73
2023-06-29T08:07:26.233Z,4.50
2023-06-29T08:09:53.179Z,5.33
2023-06-29T08:12:19.973Z,4.13
2023-06-29T08:14:46.792Z,3.73
2023-06-29T08:17:13.579Z,3.77
2023-06-29T08:19:40.360Z,3.30
2023-06-29T08:22:07.201Z,4.60
2023-06-29T08:24:34.006Z,3.50
2023-06-29T08:27:01.551Z,3.77
2023-06-29T08:29:28.524Z,3.60
2023-06-29T08:31:55.406Z,4.13
2023-06-29T08:34:23.610Z,3.80
2023-06-29T08:36:52.605Z,3.57
2023-06-29T08:39:19.761Z,3.83
2023-06-29T08:41:46.618Z,4.50
2023-06-29T08:44:14.800Z,3.70
2023-06-29T08:46:43.895Z,3.30
2023-06-29T08:49:10.874Z,3.37
2023-06-29T08:51:41.895Z,3.60
2023-06-29T08:54:09.392Z,4.13
2023-06-29T08:56:36.329Z,3.90
2023-06-29T08:59:03.766Z,4.00
2023-06-29T09:01:32.370Z,3.40
2023-06-29T09:03:59.727Z,4.27
2023-06-29T09:06:29.908Z,4.17
2023-06-29T09:08:57.183Z,3.47
2023-06-29T09:11:25.030Z,4.33
2023-06-29T09:13:52.071Z,3.00
2023-06-29T09:16:19.349Z,4.00
2023-06-29T09:18:50.536Z,4.03
2023-06-29T09:21:20.034Z,4.30
2023-06-29T09:23:50.544Z,3.60
2023-06-29T09:26:19.074Z,3.27
2023-06-29T09:28:49.057Z,3.60
2023-06-29T09:31:15.918Z,3.70
2023-06-29T09:33:42.736Z,3.90
2023-06-29T09:36:09.965Z,3.50
2023-06-29T09:38:37.796Z,3.43
2023-06-29T09:41:07.837Z,3.60
2023-06-29T09:43:34.744Z,3.10
2023-06-29T09:46:08.793Z,4.00
2023-06-29T09:51:22.349Z,3.40
2023-06-29T09:53:49.486Z,3.40
2023-06-29T09:56:17.480Z,3.93
2023-06-29T09:58:44.731Z,3.03
2023-06-29T10:01:11.943Z,3.20
2023-06-29T10:03:38.806Z,3.40
2023-06-29T10:06:14.893Z,3.23
2023-06-29T10:08:43.496Z,3.20
2023-06-29T10:11:10.294Z,3.00
2023-06-29T10:13:42.705Z,2.73
2023-06-29T10:16:11.530Z,2.73
2023-06-29T10:18:42.400Z,3.23
2023-06-29T10:21:09.863Z,2.33
2023-06-29T10:23:38.407Z,2.97
2023-06-29T10:26:06.586Z,2.60
2023-06-29T10:28:35.619Z,2.30
2023-06-29T10:31:02.628Z,2.47
2023-06-29T10:33:29.526Z,3.23
2023-06-29T10:36:01.018Z,3.03
2023-06-29T10:38:37.019Z,3.00
2023-06-29T10:41:10.082Z,2.60
2023-06-29T10:44:06.426Z,2.90
2023-06-29T10:46:47.137Z,3.23
2023-06-29T10:49:24.858Z,2.80
2023-06-29T10:51:56.369Z,3.30
2023-06-29T10:54:26.476Z,2.97
2023-06-29T10:57:31.389Z,2.73
2023-06-29T10:59:58.386Z,2.73
2023-06-29T11:02:25.372Z,3.00
2023-06-29T11:04:52.285Z,3.07
2023-06-29T11:07:19.212Z,2.60
2023-06-29T11:09:46.011Z,3.93
2023-06-29T11:12:15.392Z,3.43
2023-06-29T11:14:43.465Z,2.60
2023-06-29T11:17:10.703Z,2.90
2023-06-29T11:19:43.974Z,2.90
2023-06-29T11:22:10.819Z,3.57
2023-06-29T11:24:37.673Z,2.50
2023-06-29T11:27:05.124Z,3.30
2023-06-29T11:29:31.900Z,2.77
2023-06-29T11:32:02.295Z,3.00
2023-06-29T11:34:29.259Z,3.40
2023-06-29T11:37:14.145Z,2.90
2023-06-29T11:39:42.436Z,3.20
2023-06-29T11:42:10.265Z,2.63
2023-06-29T11:44:37.131Z,2.60
2023-06-29T11:47:18.565Z,3.17
2023-06-29T11:49:52.199Z,2.67
2023-06-29T11:52:20.116Z,3.07
2023-06-29T11:54:47.649Z,2.57
2023-06-29T11:57:18.973Z,3.03
2023-06-29T11:59:46.506Z,2.90
2023-06-29T12:02:15.570Z,3.23
2023-06-29T12:05:05.023Z,2.93
2023-06-29T12:07:40.052Z,3.70
2023-06-29T12:10:09.465Z,3.80
2023-06-29T12:12:44.022Z,3.50
2023-06-29T12:15:22.180Z,3.20
2023-06-29T12:20:23.177Z,3.00
2023-06-29T12:22:52.174Z,3.30
2023-06-29T12:25:20.427Z,3.40
2023-06-29T12:27:48.970Z,2.90
2023-06-29T12:30:21.887Z,3.47
2023-06-29T12:32:50.678Z,2.87
2023-06-29T12:35:18.906Z,3.40
2023-06-29T12:37:46.424Z,3.53
2023-06-29T12:40:16.014Z,2.73
2023-06-29T12:42:42.827Z,2.50
2023-06-29T12:45:10.057Z,2.53
2023-06-29T12:47:37.542Z,2.60
2023-06-29T12:50:04.754Z,2.30
2023-06-29T12:52:32.079Z,2.37
2023-06-29T12:54:58.939Z,2.80
2023-06-29T12:57:30.014Z,2.63
2023-06-29T12:59:58.241Z,2.33
2023-06-29T13:02:26.064Z,2.67
2023-06-29T13:04:53.152Z,3.60
2023-06-29T13:07:20.960Z,2.90
2023-06-29T13:09:49.000Z,2.80
2023-06-29T13:12:16.058Z,2.20
2023-06-29T13:14:43.535Z,2.80
2023-06-29T13:17:11.889Z,2.37
2023-06-29T13:19:43.815Z,2.23
2023-06-29T13:22:10.790Z,2.70
2023-06-29T13:24:38.067Z,2.33
2023-06-29T13:27:05.752Z,2.37
2023-06-29T13:29:33.155Z,2.80
2023-06-29T13:31:59.929Z,2.60
2023-06-29T13:34:32.049Z,2.67
2023-06-29T13:37:00.630Z,2.37
2023-06-29T13:39:27.812Z,2.77
2023-06-29T13:41:54.570Z,2.80
2023-06-29T13:44:21.432Z,2.60
2023-06-29T13:46:48.296Z,3.13
2023-06-29T13:49:16.822Z,2.67
2023-06-29T13:51:44.138Z,2.60
2023-06-29T13:54:12.095Z,2.30
2023-06-29T13:56:39.296Z,2.67
2023-06-29T13:59:08.042Z,2.37
2023-06-29T14:01:43.960Z,2.73
2023-06-29T14:04:12.391Z,2.30
2023-06-29T14:06:43.126Z,2.27
2023-06-29T14:09:11.646Z,2.30
2023-06-29T14:11:38.783Z,2.10
2023-06-29T14:14:05.927Z,2.83
2023-06-29T14:16:33.192Z,2.73
2023-06-29T14:19:01.276Z,2.70
2023-06-29T14:21:28.500Z,2.60
2023-06-29T14:23:55.828Z,4.10
2023-06-29T14:26:23.811Z,2.50
2023-06-29T14:28:50.846Z,2.27
2023-06-29T14:31:18.440Z,2.80
2023-06-29T14:33:46.171Z,3.00
2023-06-29T14:36:13.306Z,2.70
2023-06-29T14:38:40.115Z,3.03
2023-06-29T14:41:06.992Z,3.27
2023-06-29T14:43:33.865Z,2.90
2023-06-29T14:46:00.799Z,3.10
2023-06-29T14:48:27.701Z,3.10
2023-06-29T14:50:54.974Z,2.97
2023-06-29T14:53:22.520Z,2.70
2023-06-29T14:55:50.094Z,3.40
2023-06-29T14:58:17.971Z,2.70
2023-06-29T15:00:46.004Z,3.13
2023-06-29T15:03:13.353Z,3.20
2023-06-29T15:05:40.455Z,2.73
2023-06-29T15:08:07.253Z,3.00
2023-06-29T15:10:34.065Z,2.93
2023-06-29T15:13:01.171Z,3.37
2023-06-29T15:15:28.025Z,2.43
2023-06-29T15:17:54.787Z,3.00
2023-06-29T15:20:21.596Z,2.90
2023-06-29T15:22:48.387Z,3.60
2023-06-29T15:25:15.244Z,3.83
2023-06-29T15:27:42.077Z,2.63
2023-06-29T15:30:09.299Z,2.60
2023-06-29T15:32:36.453Z,3.03
2023-06-29T15:35:04.484Z,3.00
2023-06-29T15:37:32.936Z,3.00
2023-06-29T15:39:59.768Z,2.80
2023-06-29T15:42:29.176Z,2.97
2023-06-29T15:44:56.378Z,2.50
2023-06-29T15:47:23.475Z,3.27
2023-06-29T15:49:50.454Z,2.60
2023-06-29T15:52:17.909Z,2.60
2023-06-29T15:54:44.999Z,2.77
2023-06-29T15:57:12.406Z,2.97
2023-06-29T15:59:39.460Z,2.33
2023-06-29T16:02:07.858Z,2.70
2023-06-29T16:04:34.946Z,3.10
2023-06-29T16:07:02.186Z,2.40
2023-06-29T16:09:33.257Z,2.40
2023-06-29T16:12:00.833Z,2.13
2023-06-29T16:14:27.669Z,2.10
2023-06-29T16:16:54.511Z,2.37
2023-06-29T16:19:21.989Z,2.70
2023-06-29T16:21:49.127Z,2.73
2023-06-29T16:24:16.014Z,2.30
2023-06-29T16:26:44.160Z,3.07
2023-06-29T16:29:11.008Z,2.03
2023-06-29T16:31:38.020Z,2.80
2023-06-29T16:34:04.972Z,2.17
2023-06-29T16:36:32.362Z,2.33
2023-06-29T16:38:59.317Z,2.27
2023-06-29T16:41:26.163Z,2.17
2023-06-29T16:43:54.495Z,2.30
2023-06-29T16:46:21.532Z,2.20
2023-06-29T16:49:01.553Z,3.20
2023-06-29T16:51:29.738Z,2.67
2023-06-29T16:53:58.274Z,2.40
2023-06-29T16:56:27.205Z,2.23
2023-06-29T16:58:55.297Z,2.20
2023-06-29T17:01:22.301Z,2.40
2023-06-29T17:03:49.347Z,2.33
2023-06-29T17:06:16.338Z,2.50
2023-06-29T17:08:43.218Z,2.80
2023-06-29T17:11:10.042Z,2.30
2023-06-29T17:13:36.897Z,1.90
2023-06-29T17:16:04.620Z,3.27
2023-06-29T17:18:31.545Z,2.70
2023-06-29T17:20:58.369Z,2.30
2023-06-29T17:23:25.198Z,2.77
2023-06-29T17:25:52.731Z,2.73
2023-06-29T17:28:20.406Z,2.33
2023-06-29T17:30:47.880Z,2.87
2023-06-29T17:33:15.516Z,2.20
2023-06-29T17:35:43.212Z,2.40
2023-06-29T17:38:10.343Z,2.50
2023-06-29T17:40:37.196Z,2.77
2023-06-29T17:43:04.108Z,2.40
2023-06-29T17:45:30.924Z,2.53
2023-06-29T17:47:57.832Z,3.17
2023-06-29T17:50:24.692Z,2.30
2023-06-29T17:52:51.634Z,2.37
2023-06-29T17:55:19.386Z,2.37
2023-06-29T17:57:46.243Z,2.77
2023-06-29T18:00:14.169Z,2.53
2023-06-29T18:02:41.227Z,2.40
2023-06-29T18:05:09.078Z,2.43
2023-06-29T18:07:36.202Z,2.13
2023-06-29T18:10:07.716Z,2.80
2023-06-29T18:12:38.683Z,2.53
2023-06-29T18:15:09.419Z,2.60
2023-06-29T18:17:36.315Z,2.73
2023-06-29T18:20:03.635Z,2.50
2023-06-29T18:22:36.464Z,2.10
2023-06-29T18:25:06.274Z,3.00
2023-06-29T18:27:36.149Z,2.60
2023-06-29T18:30:06.406Z,2.43
2023-06-29T18:32:37.042Z,2.57
2023-06-29T18:35:14.494Z,2.53
2023-06-29T18:37:48.874Z,2.40
2023-06-29T18:40:25.850Z,2.57
2023-06-29T18:42:52.770Z,2.60
2023-06-29T18:45:21.092Z,3.20
2023-06-29T18:47:49.063Z,2.90
2023-06-29T18:50:19.528Z,2.70
2023-06-29T18:52:58.506Z,3.07
2023-06-29T18:55:32.276Z,3.13
2023-06-29T18:58:02.252Z,3.03
2023-06-29T19:00:31.639Z,2.67
2023-06-29T19:02:58.832Z,2.60
2023-06-29T19:05:25.812Z,3.03
2023-06-29T19:07:57.512Z,2.50
2023-06-29T19:10:30.629Z,2.37
2023-06-29T19:12:57.553Z,1.90
2023-06-29T19:15:27.582Z,2.27
2023-06-29T19:18:00.946Z,1.93
2023-06-29T19:20:28.235Z,2.80
2023-06-29T19:23:02.842Z,2.70
2023-06-29T19:25:29.770Z,2.40
2023-06-29T19:28:02.890Z,2.57
2023-06-29T19:30:33.188Z,2.27
2023-06-29T19:33:08.997Z,2.10
2023-06-29T19:35:42.379Z,2.60
2023-06-29T19:38:16.293Z,2.03
2023-06-29T19:40:47.381Z,2.33
2023-06-29T19:43:16.500Z,2.20
2023-06-29T19:45:49.208Z,2.20
2023-06-29T19:48:21.020Z,2.50
2023-06-29T19:50:59.843Z,2.73
2023-06-29T19:53:41.239Z,2.60
2023-06-29T19:56:28.911Z,2.47
2023-06-29T19:58:58.892Z,2.17
2023-06-29T20:01:31.252Z,2.27
2023-06-29T20:04:10.096Z,2.40
2023-06-29T20:06:37.740Z,2.60
2023-06-29T20:11:56.937Z,1.53
2023-06-29T20:14:39.770Z,2.63
2023-06-29T20:17:06.746Z,2.60
2023-06-29T20:19:35.480Z,2.20
2023-06-29T20:22:02.307Z,2.43
2023-06-29T20:24:29.099Z,2.30
2023-06-29T20:26:55.984Z,2.20
2023-06-29T20:29:22.790Z,2.43
2023-06-29T20:31:49.592Z,2.23
2023-06-29T20:34:17.047Z,2.40
2023-06-29T20:36:43.928Z,2.40
2023-06-29T20:39:10.701Z,2.00
2023-06-29T20:41:37.578Z,2.03
2023-06-29T20:44:14.894Z,2.20
2023-06-29T20:46:42.777Z,3.20
2023-06-29T20:49:10.009Z,4.20
2023-06-29T20:51:38.057Z,3.10
2023-06-29T20:54:04.964Z,2.87
2023-06-29T20:56:31.782Z,3.43
2023-06-29T20:58:58.703Z,2.17
2023-06-29T21:01:25.558Z,2.00
2023-06-29T21:03:52.440Z,2.50
2023-06-29T21:06:19.410Z,2.70
2023-06-29T21:08:46.434Z,2.20
2023-06-29T21:11:13.457Z,3.10
2023-06-29T21:13:40.465Z,2.70
2023-06-29T21:16:07.703Z,2.13
2023-06-29T21:18:34.918Z,2.10
2023-06-29T21:21:02.128Z,2.03
2023-06-29T21:23:29.006Z,1.80
2023-06-29T21:25:56.216Z,2.13
2023-06-29T21:28:23.846Z,2.10
2023-06-29T21:30:50.839Z,2.33
2023-06-29T21:33:17.891Z,3.23
2023-06-29T21:35:45.205Z,2.70
2023-06-29T21:38:12.440Z,2.37
2023-06-29T21:40:39.281Z,2.17
2023-06-29T21:43:06.097Z,1.97
2023-06-29T21:45:32.857Z,2.20
2023-06-29T21:47:59.810Z,2.37
2023-06-29T21:50:26.674Z,2.37
2023-06-29T21:52:53.948Z,2.10
2023-06-29T21:55:20.812Z,2.30
2023-06-29T21:57:47.975Z,2.53
2023-06-29T22:00:15.186Z,2.60
2023-06-29T22:02:44.290Z,2.50
2023-06-29T22:05:11.769Z,2.87
2023-06-29T22:07:38.605Z,2.53
2023-06-29T22:10:05.991Z,2.30
2023-06-29T22:12:33.093Z,3.17
2023-06-29T22:15:00.050Z,2.57
2023-06-29T22:17:26.888Z,3.07
2023-06-29T22:20:29.426Z,2.50
2023-06-29T22:22:56.387Z,2.87
2023-06-29T22:25:23.334Z,2.33
2023-06-29T22:27:50.224Z,2.50
2023-06-29T22:30:17.071Z,3.47
2023-06-29T22:32:51.773Z,2.60
2023-06-29T22:35:19.564Z,2.60
2023-06-29T22:37:46.433Z,2.90
2023-06-29T22:40:13.521Z,2.80
2023-06-29T22:42:40.339Z,2.53
2023-06-29T22:45:07.537Z,2.50
2023-06-29T22:47:34.375Z,2.30
2023-06-29T22:50:01.563Z,2.90
2023-06-29T22:52:28.882Z,2.97
2023-06-29T22:54:55.831Z,2.53
2023-06-29T22:57:23.163Z,3.40
2023-06-29T22:59:50.978Z,3.03
2023-06-29T23:02:18.515Z,2.77
2023-06-29T23:04:45.693Z,3.20
2023-06-29T23:07:12.789Z,3.00
2023-06-29T23:09:39.667Z,2.90
2023-06-29T23:12:06.910Z,3.03
2023-06-29T23:14:34.488Z,2.90
2023-06-29T23:17:04.039Z,2.97
2023-06-29T23:19:35.231Z,3.50
2023-06-29T23:22:06.831Z,2.83
2023-06-29T23:24:33.646Z,3.20
2023-06-29T23:27:00.478Z,3.27
2023-06-29T23:29:27.284Z,2.80
2023-06-29T23:31:54.700Z,3.17
2023-06-29T23:34:22.526Z,3.53
2023-06-29T23:36:49.814Z,3.07
2023-06-29T23:39:17.052Z,2.87
2023-06-29T23:41:43.875Z,3.17
2023-06-29T23:44:11.300Z,3.40
2023-06-29T23:46:44.708Z,2.93
2023-06-29T23:49:13.210Z,3.30
2023-06-29T23:51:41.396Z,3.10
2023-06-29T23:54:08.545Z,3.10
2023-06-29T23:56:35.438Z,3.43
2023-06-29T23:59:02.437Z,3.23
